sensor_id;sensor_type;location;lat;lon;timestamp;P1;durP1;ratioP1;P2;durP2;ratioP2
15712;SDS011;7957;51.608;6.916;2022-09-12T00:01:16;12.87;;;11.77;;
15712;SDS011;7957;51.608;6.916;2022-09-12T00:03:44;13.60;;;12.40;;
15712;SDS011;7957;51.608;6.916;2022-09-12T00:06:15;12.73;;;11.63;;
15712;SDS011;7957;51.608;6.916;2022-09-12T00:08:44;13.57;;;12.30;;
15712;SDS011;7957;51.608;6.916;2022-09-12T00:11:11;13.63;;;12.33;;
15712;SDS011;7957;51.608;6.916;2022-09-12T00:13:39;13.00;;;11.80;;
15712;SDS011;7957;51.608;6.916;2022-09-12T00:16:11;12.47;;;11.47;;
15712;SDS011;7957;51.608;6.916;2022-09-12T00:18:41;12.87;;;11.77;;
15712;SDS011;7957;51.608;6.916;2022-09-12T00:21:10;12.27;;;11.03;;
15712;SDS011;7957;51.608;6.916;2022-09-12T00:23:39;11.27;;;10.27;;
15712;SDS011;7957;51.608;6.916;2022-09-12T00:26:06;12.10;;;11.00;;
15712;SDS011;7957;51.608;6.916;2022-09-12T00:28:34;11.93;;;10.93;;
15712;SDS011;7957;51.608;6.916;2022-09-12T00:31:02;12.50;;;11.40;;
15712;SDS011;7957;51.608;6.916;2022-09-12T00:33:31;11.50;;;10.50;;
15712;SDS011;7957;51.608;6.916;2022-09-12T00:35:58;11.67;;;10.67;;
15712;SDS011;7957;51.608;6.916;2022-09-12T00:38:25;12.30;;;11.20;;
15712;SDS011;7957;51.608;6.916;2022-09-12T00:40:53;11.43;;;10.43;;
15712;SDS011;7957;51.608;6.916;2022-09-12T00:43:33;11.37;;;10.47;;
15712;SDS011;7957;51.608;6.916;2022-09-12T00:46:03;11.80;;;10.83;;
15712;SDS011;7957;51.608;6.916;2022-09-12T00:48:35;11.73;;;10.70;;
15712;SDS011;7957;51.608;6.916;2022-09-12T00:51:07;11.57;;;10.57;;
15712;SDS011;7957;51.608;6.916;2022-09-12T00:53:34;11.57;;;10.47;;
15712;SDS011;7957;51.608;6.916;2022-09-12T00:56:03;12.30;;;11.27;;
15712;SDS011;7957;51.608;6.916;2022-09-12T00:58:30;11.43;;;10.43;;
15712;SDS011;7957;51.608;6.916;2022-09-12T01:01:02;11.27;;;10.37;;
15712;SDS011;7957;51.608;6.916;2022-09-12T01:03:30;11.90;;;10.90;;
15712;SDS011;7957;51.608;6.916;2022-09-12T01:05:58;11.40;;;10.40;;
15712;SDS011;7957;51.608;6.916;2022-09-12T01:08:30;11.67;;;10.60;;
15712;SDS011;7957;51.608;6.916;2022-09-12T01:10:59;11.80;;;10.90;;
15712;SDS011;7957;51.608;6.916;2022-09-12T01:13:27;12.20;;;11.20;;
15712;SDS011;7957;51.608;6.916;2022-09-12T01:15:55;12.27;;;11.33;;
15712;SDS011;7957;51.608;6.916;2022-09-12T01:18:24;12.20;;;11.20;;
15712;SDS011;7957;51.608;6.916;2022-09-12T01:21:12;13.30;;;12.20;;
15712;SDS011;7957;51.608;6.916;2022-09-12T01:29:39;12.43;;;11.43;;
15712;SDS011;7957;51.608;6.916;2022-09-12T01:32:24;11.63;;;10.73;;
15712;SDS011;7957;51.608;6.916;2022-09-12T01:35:03;12.57;;;11.37;;
15712;SDS011;7957;51.608;6.916;2022-09-12T01:37:37;11.83;;;10.73;;
15712;SDS011;7957;51.608;6.916;2022-09-12T01:40:08;11.77;;;10.77;;
15712;SDS011;7957;51.608;6.916;2022-09-12T01:42:40;12.03;;;11.03;;
15712;SDS011;7957;51.608;6.916;2022-09-12T01:45:15;12.53;;;11.33;;
15712;SDS011;7957;51.608;6.916;2022-09-12T01:47:50;12.27;;;11.20;;
15712;SDS011;7957;51.608;6.916;2022-09-12T01:50:23;12.40;;;11.33;;
15712;SDS011;7957;51.608;6.916;2022-09-12T01:52:53;12.50;;;11.40;;
15712;SDS011;7957;51.608;6.916;2022-09-12T01:55:24;12.70;;;11.60;;
15712;SDS011;7957;51.608;6.916;2022-09-12T01:57:56;12.63;;;11.50;;
15712;SDS011;7957;51.608;6.916;2022-09-12T02:00:28;13.00;;;11.90;;
15712;SDS011;7957;51.608;6.916;2022-09-12T02:02:59;12.70;;;11.60;;
15712;SDS011;7957;51.608;6.916;2022-09-12T02:05:30;13.17;;;11.97;;
15712;SDS011;7957;51.608;6.916;2022-09-12T02:08:00;13.20;;;12.10;;
15712;SDS011;7957;51.608;6.916;2022-09-12T02:10:33;12.93;;;11.83;;
15712;SDS011;7957;51.608;6.916;2022-09-12T02:13:08;13.53;;;12.33;;
15712;SDS011;7957;51.608;6.916;2022-09-12T02:15:47;13.53;;;12.33;;
15712;SDS011;7957;51.608;6.916;2022-09-12T02:18:19;13.00;;;11.90;;
15712;SDS011;7957;51.608;6.916;2022-09-12T02:20:47;13.80;;;12.50;;
15712;SDS011;7957;51.608;6.916;2022-09-12T02:23:16;13.70;;;12.50;;
15712;SDS011;7957;51.608;6.916;2022-09-12T02:25:47;13.80;;;12.43;;
15712;SDS011;7957;51.608;6.916;2022-09-12T02:28:17;13.27;;;12.07;;
15712;SDS011;7957;51.608;6.916;2022-09-12T02:30:55;14.13;;;12.93;;
15712;SDS011;7957;51.608;6.916;2022-09-12T02:33:29;13.73;;;12.53;;
15712;SDS011;7957;51.608;6.916;2022-09-12T02:36:05;13.03;;;11.90;;
15712;SDS011;7957;51.608;6.916;2022-09-12T02:38:39;13.83;;;12.50;;
15712;SDS011;7957;51.608;6.916;2022-09-12T02:41:09;13.10;;;12.00;;
15712;SDS011;7957;51.608;6.916;2022-09-12T02:43:39;13.53;;;12.40;;
15712;SDS011;7957;51.608;6.916;2022-09-12T02:46:07;13.13;;;12.03;;
15712;SDS011;7957;51.608;6.916;2022-09-12T02:48:39;12.87;;;11.77;;
15712;SDS011;7957;51.608;6.916;2022-09-12T02:51:08;12.00;;;11.00;;
15712;SDS011;7957;51.608;6.916;2022-09-12T02:53:37;13.30;;;12.00;;
15712;SDS011;7957;51.608;6.916;2022-09-12T02:56:06;13.10;;;11.63;;
15712;SDS011;7957;51.608;6.916;2022-09-12T02:58:37;13.13;;;11.90;;
15712;SDS011;7957;51.608;6.916;2022-09-12T03:01:08;11.83;;;10.83;;
15712;SDS011;7957;51.608;6.916;2022-09-12T03:03:51;10.97;;;10.07;;
15712;SDS011;7957;51.608;6.916;2022-09-12T03:06:27;11.33;;;10.43;;
15712;SDS011;7957;51.608;6.916;2022-09-12T03:09:02;11.30;;;10.40;;
15712;SDS011;7957;51.608;6.916;2022-09-12T03:11:55;11.90;;;10.90;;
15712;SDS011;7957;51.608;6.916;2022-09-12T03:14:35;11.13;;;10.20;;
15712;SDS011;7957;51.608;6.916;2022-09-12T03:17:18;11.47;;;10.37;;
15712;SDS011;7957;51.608;6.916;2022-09-12T03:19:55;10.80;;;9.83;;
15712;SDS011;7957;51.608;6.916;2022-09-12T03:22:27;10.60;;;9.80;;
15712;SDS011;7957;51.608;6.916;2022-09-12T03:25:02;10.60;;;9.60;;
15712;SDS011;7957;51.608;6.916;2022-09-12T03:27:38;10.77;;;9.87;;
15712;SDS011;7957;51.608;6.916;2022-09-12T03:30:10;11.40;;;10.47;;
15712;SDS011;7957;51.608;6.916;2022-09-12T03:32:44;10.60;;;9.60;;
15712;SDS011;7957;51.608;6.916;2022-09-12T03:35:15;10.63;;;9.73;;
15712;SDS011;7957;51.608;6.916;2022-09-12T03:37:43;10.30;;;9.40;;
15712;SDS011;7957;51.608;6.916;2022-09-12T03:40:10;10.20;;;9.20;;
15712;SDS011;7957;51.608;6.916;2022-09-12T03:42:37;10.70;;;9.60;;
15712;SDS011;7957;51.608;6.916;2022-09-12T03:45:05;10.30;;;9.40;;
15712;SDS011;7957;51.608;6.916;2022-09-12T03:47:33;10.37;;;9.40;;
15712;SDS011;7957;51.608;6.916;2022-09-12T03:50:00;11.97;;;10.27;;
15712;SDS011;7957;51.608;6.916;2022-09-12T03:52:28;10.47;;;9.57;;
15712;SDS011;7957;51.608;6.916;2022-09-12T03:54:55;10.43;;;9.53;;
15712;SDS011;7957;51.608;6.916;2022-09-12T03:57:22;10.67;;;9.67;;
15712;SDS011;7957;51.608;6.916;2022-09-12T03:59:49;10.53;;;9.63;;
15712;SDS011;7957;51.608;6.916;2022-09-12T04:02:16;10.83;;;9.90;;
15712;SDS011;7957;51.608;6.916;2022-09-12T04:04:43;9.67;;;8.83;;
15712;SDS011;7957;51.608;6.916;2022-09-12T04:07:11;10.47;;;9.57;;
15712;SDS011;7957;51.608;6.916;2022-09-12T04:09:41;11.90;;;10.73;;
15712;SDS011;7957;51.608;6.916;2022-09-12T04:12:08;11.40;;;10.20;;
15712;SDS011;7957;51.608;6.916;2022-09-12T04:14:35;11.20;;;10.17;;
15712;SDS011;7957;51.608;6.916;2022-09-12T04:17:02;10.60;;;9.70;;
15712;SDS011;7957;51.608;6.916;2022-09-12T04:19:29;12.10;;;11.00;;
15712;SDS011;7957;51.608;6.916;2022-09-12T04:21:56;10.97;;;9.97;;
15712;SDS011;7957;51.608;6.916;2022-09-12T04:24:23;11.00;;;10.00;;
15712;SDS011;7957;51.608;6.916;2022-09-12T04:26:52;10.30;;;9.50;;
15712;SDS011;7957;51.608;6.916;2022-09-12T04:29:18;10.87;;;9.87;;
15712;SDS011;7957;51.608;6.916;2022-09-12T04:31:45;11.13;;;10.23;;
15712;SDS011;7957;51.608;6.916;2022-09-12T04:34:13;11.43;;;10.43;;
15712;SDS011;7957;51.608;6.916;2022-09-12T04:36:40;11.13;;;10.13;;
15712;SDS011;7957;51.608;6.916;2022-09-12T04:39:07;11.80;;;10.80;;
15712;SDS011;7957;51.608;6.916;2022-09-12T04:41:36;11.27;;;10.23;;
15712;SDS011;7957;51.608;6.916;2022-09-12T04:44:07;11.60;;;10.60;;
15712;SDS011;7957;51.608;6.916;2022-09-12T04:46:36;11.80;;;10.70;;
15712;SDS011;7957;51.608;6.916;2022-09-12T04:49:05;11.33;;;10.33;;
15712;SDS011;7957;51.608;6.916;2022-09-12T04:51:33;11.40;;;10.30;;
15712;SDS011;7957;51.608;6.916;2022-09-12T04:54:02;11.40;;;10.30;;
15712;SDS011;7957;51.608;6.916;2022-09-12T04:56:30;11.17;;;10.13;;
15712;SDS011;7957;51.608;6.916;2022-09-12T04:58:58;11.13;;;10.03;;
15712;SDS011;7957;51.608;6.916;2022-09-12T05:01:28;11.00;;;9.97;;
15712;SDS011;7957;51.608;6.916;2022-09-12T05:03:55;10.97;;;10.03;;
15712;SDS011;7957;51.608;6.916;2022-09-12T05:06:24;11.03;;;10.10;;
15712;SDS011;7957;51.608;6.916;2022-09-12T05:08:54;10.47;;;9.50;;
15712;SDS011;7957;51.608;6.916;2022-09-12T05:11:23;11.10;;;10.03;;
15712;SDS011;7957;51.608;6.916;2022-09-12T05:13:50;10.73;;;9.30;;
15712;SDS011;7957;51.608;6.916;2022-09-12T05:16:18;10.27;;;9.37;;
15712;SDS011;7957;51.608;6.916;2022-09-12T05:18:47;9.77;;;8.87;;
15712;SDS011;7957;51.608;6.916;2022-09-12T05:21:15;10.93;;;9.93;;
15712;SDS011;7957;51.608;6.916;2022-09-12T05:23:43;10.83;;;9.83;;
15712;SDS011;7957;51.608;6.916;2022-09-12T05:26:12;10.53;;;9.33;;
15712;SDS011;7957;51.608;6.916;2022-09-12T05:28:40;10.03;;;9.13;;
15712;SDS011;7957;51.608;6.916;2022-09-12T05:31:10;10.30;;;9.40;;
15712;SDS011;7957;51.608;6.916;2022-09-12T05:33:38;11.63;;;9.93;;
15712;SDS011;7957;51.608;6.916;2022-09-12T05:36:08;10.33;;;9.40;;
15712;SDS011;7957;51.608;6.916;2022-09-12T05:38:37;11.93;;;9.93;;
15712;SDS011;7957;51.608;6.916;2022-09-12T05:41:05;10.30;;;9.40;;
15712;SDS011;7957;51.608;6.916;2022-09-12T05:43:34;10.77;;;9.70;;
15712;SDS011;7957;51.608;6.916;2022-09-12T05:46:02;10.77;;;9.77;;
15712;SDS011;7957;51.608;6.916;2022-09-12T05:48:29;11.57;;;9.30;;
15712;SDS011;7957;51.608;6.916;2022-09-12T05:50:59;10.00;;;9.17;;
15712;SDS011;7957;51.608;6.916;2022-09-12T05:53:29;9.80;;;8.90;;
15712;SDS011;7957;51.608;6.916;2022-09-12T05:56:03;10.27;;;9.27;;
15712;SDS011;7957;51.608;6.916;2022-09-12T05:58:31;10.60;;;9.60;;
15712;SDS011;7957;51.608;6.916;2022-09-12T06:01:02;9.60;;;8.70;;
15712;SDS011;7957;51.608;6.916;2022-09-12T06:03:33;10.53;;;9.43;;
15712;SDS011;7957;51.608;6.916;2022-09-12T06:06:00;9.90;;;9.00;;
15712;SDS011;7957;51.608;6.916;2022-09-12T06:08:32;10.03;;;9.00;;
15712;SDS011;7957;51.608;6.916;2022-09-12T06:11:00;9.87;;;8.87;;
15712;SDS011;7957;51.608;6.916;2022-09-12T06:13:30;9.80;;;8.83;;
15712;SDS011;7957;51.608;6.916;2022-09-12T06:16:07;10.27;;;9.23;;
15712;SDS011;7957;51.608;6.916;2022-09-12T06:18:35;9.93;;;8.93;;
15712;SDS011;7957;51.608;6.916;2022-09-12T06:21:03;10.40;;;9.30;;
15712;SDS011;7957;51.608;6.916;2022-09-12T06:23:32;10.80;;;9.70;;
15712;SDS011;7957;51.608;6.916;2022-09-12T06:25:59;10.43;;;9.43;;
15712;SDS011;7957;51.608;6.916;2022-09-12T06:28:28;11.00;;;9.73;;
15712;SDS011;7957;51.608;6.916;2022-09-12T06:31:00;10.17;;;9.27;;
15712;SDS011;7957;51.608;6.916;2022-09-12T06:33:28;9.60;;;8.80;;
15712;SDS011;7957;51.608;6.916;2022-09-12T06:35:55;9.77;;;8.87;;
15712;SDS011;7957;51.608;6.916;2022-09-12T06:38:28;10.67;;;9.67;;
15712;SDS011;7957;51.608;6.916;2022-09-12T06:40:57;10.60;;;9.40;;
15712;SDS011;7957;51.608;6.916;2022-09-12T06:43:24;10.03;;;9.13;;
15712;SDS011;7957;51.608;6.916;2022-09-12T06:45:51;10.50;;;9.10;;
15712;SDS011;7957;51.608;6.916;2022-09-12T06:48:18;11.43;;;9.50;;
15712;SDS011;7957;51.608;6.916;2022-09-12T06:50:53;10.07;;;9.07;;
15712;SDS011;7957;51.608;6.916;2022-09-12T06:53:21;11.00;;;9.90;;
15712;SDS011;7957;51.608;6.916;2022-09-12T06:55:53;10.50;;;9.50;;
15712;SDS011;7957;51.608;6.916;2022-09-12T06:58:22;9.97;;;8.83;;
15712;SDS011;7957;51.608;6.916;2022-09-12T07:00:49;9.43;;;8.57;;
15712;SDS011;7957;51.608;6.916;2022-09-12T07:03:16;10.63;;;9.07;;
15712;SDS011;7957;51.608;6.916;2022-09-12T07:05:43;10.10;;;9.17;;
15712;SDS011;7957;51.608;6.916;2022-09-12T07:08:11;10.07;;;9.07;;
15712;SDS011;7957;51.608;6.916;2022-09-12T07:10:37;10.80;;;9.70;;
15712;SDS011;7957;51.608;6.916;2022-09-12T07:13:04;8.47;;;7.77;;
15712;SDS011;7957;51.608;6.916;2022-09-12T07:15:34;10.37;;;8.70;;
15712;SDS011;7957;51.608;6.916;2022-09-12T07:18:01;9.37;;;8.47;;
15712;SDS011;7957;51.608;6.916;2022-09-12T07:20:28;9.00;;;8.10;;
15712;SDS011;7957;51.608;6.916;2022-09-12T07:22:57;8.37;;;7.67;;
15712;SDS011;7957;51.608;6.916;2022-09-12T07:25:24;8.53;;;7.83;;
15712;SDS011;7957;51.608;6.916;2022-09-12T07:27:51;9.73;;;8.50;;
15712;SDS011;7957;51.608;6.916;2022-09-12T07:30:19;8.50;;;7.77;;
15712;SDS011;7957;51.608;6.916;2022-09-12T07:32:47;8.40;;;7.60;;
15712;SDS011;7957;51.608;6.916;2022-09-12T07:35:17;7.87;;;7.17;;
15712;SDS011;7957;51.608;6.916;2022-09-12T07:37:44;8.10;;;7.37;;
15712;SDS011;7957;51.608;6.916;2022-09-12T07:40:11;8.33;;;7.50;;
15712;SDS011;7957;51.608;6.916;2022-09-12T07:42:38;8.53;;;7.73;;
15712;SDS011;7957;51.608;6.916;2022-09-12T07:45:05;7.93;;;7.13;;
15712;SDS011;7957;51.608;6.916;2022-09-12T07:47:32;7.80;;;7.00;;
15712;SDS011;7957;51.608;6.916;2022-09-12T07:50:00;7.43;;;6.73;;
15712;SDS011;7957;51.608;6.916;2022-09-12T07:52:27;9.57;;;7.53;;
15712;SDS011;7957;51.608;6.916;2022-09-12T07:54:55;8.00;;;7.20;;
15712;SDS011;7957;51.608;6.916;2022-09-12T07:57:22;10.37;;;7.67;;
15712;SDS011;7957;51.608;6.916;2022-09-12T07:59:49;9.57;;;7.63;;
15712;SDS011;7957;51.608;6.916;2022-09-12T08:02:16;12.80;;;7.87;;
15712;SDS011;7957;51.608;6.916;2022-09-12T08:04:45;9.10;;;8.20;;
15712;SDS011;7957;51.608;6.916;2022-09-12T08:07:14;9.53;;;7.87;;
15712;SDS011;7957;51.608;6.916;2022-09-12T08:09:42;8.77;;;7.97;;
15712;SDS011;7957;51.608;6.916;2022-09-12T08:12:09;9.93;;;9.03;;
15712;SDS011;7957;51.608;6.916;2022-09-12T08:14:36;9.17;;;7.40;;
15712;SDS011;7957;51.608;6.916;2022-09-12T08:17:02;7.27;;;6.57;;
15712;SDS011;7957;51.608;6.916;2022-09-12T08:19:30;7.00;;;6.40;;
15712;SDS011;7957;51.608;6.916;2022-09-12T08:21:57;9.13;;;8.23;;
15712;SDS011;7957;51.608;6.916;2022-09-12T08:24:25;7.87;;;7.13;;
15712;SDS011;7957;51.608;6.916;2022-09-12T08:26:52;9.10;;;8.10;;
15712;SDS011;7957;51.608;6.916;2022-09-12T08:29:20;9.33;;;8.47;;
15712;SDS011;7957;51.608;6.916;2022-09-12T08:31:46;10.13;;;9.20;;
15712;SDS011;7957;51.608;6.916;2022-09-12T08:34:14;9.63;;;8.63;;
15712;SDS011;7957;51.608;6.916;2022-09-12T08:36:43;9.37;;;8.10;;
15712;SDS011;7957;51.608;6.916;2022-09-12T08:39:10;9.73;;;8.83;;
15712;SDS011;7957;51.608;6.916;2022-09-12T08:41:40;10.20;;;9.20;;
15712;SDS011;7957;51.608;6.916;2022-09-12T08:44:27;9.37;;;8.57;;
15712;SDS011;7957;51.608;6.916;2022-09-12T08:47:10;10.63;;;9.53;;
15712;SDS011;7957;51.608;6.916;2022-09-12T08:49:46;11.23;;;10.20;;
15712;SDS011;7957;51.608;6.916;2022-09-12T08:52:22;10.33;;;9.27;;
15712;SDS011;7957;51.608;6.916;2022-09-12T08:54:53;11.93;;;10.73;;
15712;SDS011;7957;51.608;6.916;2022-09-12T08:57:22;11.67;;;10.20;;
15712;SDS011;7957;51.608;6.916;2022-09-12T08:59:49;11.63;;;10.40;;
15712;SDS011;7957;51.608;6.916;2022-09-12T09:02:23;11.47;;;9.83;;
15712;SDS011;7957;51.608;6.916;2022-09-12T09:04:59;11.83;;;10.63;;
15712;SDS011;7957;51.608;6.916;2022-09-12T09:10:23;11.30;;;10.30;;
15712;SDS011;7957;51.608;6.916;2022-09-12T09:12:58;11.87;;;10.63;;
15712;SDS011;7957;51.608;6.916;2022-09-12T09:15:36;10.33;;;9.33;;
15712;SDS011;7957;51.608;6.916;2022-09-12T09:18:09;10.87;;;9.83;;
15712;SDS011;7957;51.608;6.916;2022-09-12T09:20:43;11.60;;;10.40;;
15712;SDS011;7957;51.608;6.916;2022-09-12T09:23:15;11.60;;;10.50;;
15712;SDS011;7957;51.608;6.916;2022-09-12T09:25:48;11.50;;;10.40;;
15712;SDS011;7957;51.608;6.916;2022-09-12T09:28:19;11.30;;;10.20;;
15712;SDS011;7957;51.608;6.916;2022-09-12T09:30:50;10.97;;;9.87;;
15712;SDS011;7957;51.608;6.916;2022-09-12T09:33:20;11.60;;;10.50;;
15712;SDS011;7957;51.608;6.916;2022-09-12T09:35:50;11.43;;;10.33;;
15712;SDS011;7957;51.608;6.916;2022-09-12T09:38:24;10.70;;;9.70;;
15712;SDS011;7957;51.608;6.916;2022-09-12T09:41:03;10.67;;;9.57;;
15712;SDS011;7957;51.608;6.916;2022-09-12T09:43:44;11.23;;;10.20;;
15712;SDS011;7957;51.608;6.916;2022-09-12T09:46:11;10.50;;;9.50;;
15712;SDS011;7957;51.608;6.916;2022-09-12T09:48:39;10.63;;;9.47;;
15712;SDS011;7957;51.608;6.916;2022-09-12T09:51:08;10.67;;;9.57;;
15712;SDS011;7957;51.608;6.916;2022-09-12T09:53:37;10.87;;;9.87;;
15712;SDS011;7957;51.608;6.916;2022-09-12T09:56:10;11.47;;;9.70;;
15712;SDS011;7957;51.608;6.916;2022-09-12T09:58:53;10.43;;;9.43;;
15712;SDS011;7957;51.608;6.916;2022-09-12T10:01:20;10.43;;;9.17;;
15712;SDS011;7957;51.608;6.916;2022-09-12T10:03:48;9.63;;;8.73;;
15712;SDS011;7957;51.608;6.916;2022-09-12T10:06:24;10.13;;;9.13;;
15712;SDS011;7957;51.608;6.916;2022-09-12T10:09:03;9.60;;;8.77;;
15712;SDS011;7957;51.608;6.916;2022-09-12T10:11:33;9.40;;;8.50;;
15712;SDS011;7957;51.608;6.916;2022-09-12T10:14:03;9.83;;;8.83;;
15712;SDS011;7957;51.608;6.916;2022-09-12T10:16:30;9.50;;;8.60;;
15712;SDS011;7957;51.608;6.916;2022-09-12T10:18:59;9.87;;;8.90;;
15712;SDS011;7957;51.608;6.916;2022-09-12T10:21:29;9.47;;;8.57;;
15712;SDS011;7957;51.608;6.916;2022-09-12T10:24:03;9.60;;;8.60;;
15712;SDS011;7957;51.608;6.916;2022-09-12T10:26:39;9.33;;;8.30;;
15712;SDS011;7957;51.608;6.916;2022-09-12T10:29:13;8.63;;;7.83;;
15712;SDS011;7957;51.608;6.916;2022-09-12T10:31:46;8.93;;;8.03;;
15712;SDS011;7957;51.608;6.916;2022-09-12T10:34:20;8.67;;;7.77;;
15712;SDS011;7957;51.608;6.916;2022-09-12T10:36:52;8.43;;;7.73;;
15712;SDS011;7957;51.608;6.916;2022-09-12T10:39:24;8.90;;;7.93;;
15712;SDS011;7957;51.608;6.916;2022-09-12T10:41:51;8.77;;;7.97;;
15712;SDS011;7957;51.608;6.916;2022-09-12T10:44:24;8.73;;;7.83;;
15712;SDS011;7957;51.608;6.916;2022-09-12T10:46:52;8.03;;;7.10;;
15712;SDS011;7957;51.608;6.916;2022-09-12T10:49:20;7.70;;;7.00;;
15712;SDS011;7957;51.608;6.916;2022-09-12T10:51:50;7.73;;;6.90;;
15712;SDS011;7957;51.608;6.916;2022-09-12T10:54:18;6.93;;;6.33;;
15712;SDS011;7957;51.608;6.916;2022-09-12T10:56:51;7.10;;;6.50;;
15712;SDS011;7957;51.608;6.916;2022-09-12T10:59:39;7.47;;;6.73;;
15712;SDS011;7957;51.608;6.916;2022-09-12T11:02:26;7.73;;;6.20;;
15712;SDS011;7957;51.608;6.916;2022-09-12T11:04:57;6.17;;;5.57;;
15712;SDS011;7957;51.608;6.916;2022-09-12T11:07:37;6.53;;;6.00;;
15712;SDS011;7957;51.608;6.916;2022-09-12T11:10:14;5.63;;;5.13;;
15712;SDS011;7957;51.608;6.916;2022-09-12T11:12:50;6.07;;;5.47;;
15712;SDS011;7957;51.608;6.916;2022-09-12T11:15:30;5.60;;;5.10;;
15712;SDS011;7957;51.608;6.916;2022-09-12T11:18:06;5.73;;;5.13;;
15712;SDS011;7957;51.608;6.916;2022-09-12T11:20:44;4.80;;;4.40;;
15712;SDS011;7957;51.608;6.916;2022-09-12T11:23:30;4.70;;;4.30;;
15712;SDS011;7957;51.608;6.916;2022-09-12T11:26:31;4.73;;;3.93;;
15712;SDS011;7957;51.608;6.916;2022-09-12T11:29:16;4.43;;;4.03;;
15712;SDS011;7957;51.608;6.916;2022-09-12T11:31:58;4.03;;;3.73;;
15712;SDS011;7957;51.608;6.916;2022-09-12T11:34:39;4.13;;;3.53;;
15712;SDS011;7957;51.608;6.916;2022-09-12T11:37:22;3.77;;;3.47;;
15712;SDS011;7957;51.608;6.916;2022-09-12T11:40:03;4.53;;;3.30;;
15712;SDS011;7957;51.608;6.916;2022-09-12T11:42:36;3.37;;;3.17;;
15712;SDS011;7957;51.608;6.916;2022-09-12T11:45:08;3.60;;;3.30;;
15712;SDS011;7957;51.608;6.916;2022-09-12T11:47:42;3.80;;;3.50;;
15712;SDS011;7957;51.608;6.916;2022-09-12T11:50:14;3.87;;;3.57;;
15712;SDS011;7957;51.608;6.916;2022-09-12T11:52:47;3.60;;;3.30;;
15712;SDS011;7957;51.608;6.916;2022-09-12T11:55:17;5.07;;;3.20;;
15712;SDS011;7957;51.608;6.916;2022-09-12T11:57:48;3.20;;;2.90;;
15712;SDS011;7957;51.608;6.916;2022-09-12T12:00:20;3.37;;;3.00;;
15712;SDS011;7957;51.608;6.916;2022-09-12T12:02:54;4.03;;;2.90;;
15712;SDS011;7957;51.608;6.916;2022-09-12T12:05:29;3.33;;;3.00;;
15712;SDS011;7957;51.608;6.916;2022-09-12T12:08:03;3.20;;;3.00;;
15712;SDS011;7957;51.608;6.916;2022-09-12T12:10:32;3.20;;;2.93;;
15712;SDS011;7957;51.608;6.916;2022-09-12T12:13:01;3.13;;;2.93;;
15712;SDS011;7957;51.608;6.916;2022-09-12T12:15:32;2.67;;;2.47;;
15712;SDS011;7957;51.608;6.916;2022-09-12T12:18:03;3.60;;;2.97;;
15712;SDS011;7957;51.608;6.916;2022-09-12T12:20:33;2.70;;;2.50;;
15712;SDS011;7957;51.608;6.916;2022-09-12T12:23:00;2.73;;;2.53;;
15712;SDS011;7957;51.608;6.916;2022-09-12T12:25:40;2.67;;;2.47;;
15712;SDS011;7957;51.608;6.916;2022-09-12T12:31:17;3.13;;;2.83;;
15712;SDS011;7957;51.608;6.916;2022-09-12T12:33:51;2.60;;;2.50;;
15712;SDS011;7957;51.608;6.916;2022-09-12T12:36:38;2.77;;;2.57;;
15712;SDS011;7957;51.608;6.916;2022-09-12T12:48:13;2.73;;;2.53;;
15712;SDS011;7957;51.608;6.916;2022-09-12T12:50:44;2.90;;;2.70;;
15712;SDS011;7957;51.608;6.916;2022-09-12T12:53:15;2.90;;;2.70;;
15712;SDS011;7957;51.608;6.916;2022-09-12T12:55:45;2.63;;;2.43;;
15712;SDS011;7957;51.608;6.916;2022-09-12T12:58:21;3.30;;;3.10;;
15712;SDS011;7957;51.608;6.916;2022-09-12T13:01:04;2.67;;;2.47;;
15712;SDS011;7957;51.608;6.916;2022-09-12T13:03:37;3.03;;;2.83;;
15712;SDS011;7957;51.608;6.916;2022-09-12T13:06:18;3.47;;;2.30;;
15712;SDS011;7957;51.608;6.916;2022-09-12T13:08:54;4.70;;;2.57;;
15712;SDS011;7957;51.608;6.916;2022-09-12T13:11:29;2.70;;;2.50;;
15712;SDS011;7957;51.608;6.916;2022-09-12T13:14:02;2.63;;;2.43;;
15712;SDS011;7957;51.608;6.916;2022-09-12T13:16:34;2.90;;;2.70;;
15712;SDS011;7957;51.608;6.916;2022-09-12T13:19:05;2.80;;;2.60;;
15712;SDS011;7957;51.608;6.916;2022-09-12T13:21:39;2.93;;;2.40;;
15712;SDS011;7957;51.608;6.916;2022-09-12T13:24:21;3.03;;;2.73;;
15712;SDS011;7957;51.608;6.916;2022-09-12T13:26:48;2.50;;;2.40;;
15712;SDS011;7957;51.608;6.916;2022-09-12T13:29:16;3.40;;;2.73;;
15712;SDS011;7957;51.608;6.916;2022-09-12T13:31:44;3.40;;;2.67;;
15712;SDS011;7957;51.608;6.916;2022-09-12T13:34:16;3.10;;;2.80;;
15712;SDS011;7957;51.608;6.916;2022-09-12T13:36:53;3.07;;;2.80;;
15712;SDS011;7957;51.608;6.916;2022-09-12T13:39:48;2.80;;;2.60;;
15712;SDS011;7957;51.608;6.916;2022-09-12T13:42:37;2.70;;;2.50;;
15712;SDS011;7957;51.608;6.916;2022-09-12T13:45:05;3.00;;;2.80;;
15712;SDS011;7957;51.608;6.916;2022-09-12T13:47:38;2.90;;;2.70;;
15712;SDS011;7957;51.608;6.916;2022-09-12T13:50:07;2.80;;;2.60;;
15712;SDS011;7957;51.608;6.916;2022-09-12T13:52:41;2.80;;;2.60;;
15712;SDS011;7957;51.608;6.916;2022-09-12T13:55:17;2.60;;;2.40;;
15712;SDS011;7957;51.608;6.916;2022-09-12T13:57:58;2.67;;;2.47;;
15712;SDS011;7957;51.608;6.916;2022-09-12T14:00:26;3.10;;;2.40;;
15712;SDS011;7957;51.608;6.916;2022-09-12T14:02:55;2.53;;;2.33;;
15712;SDS011;7957;51.608;6.916;2022-09-12T14:05:36;3.03;;;2.73;;
15712;SDS011;7957;51.608;6.916;2022-09-12T14:08:06;3.33;;;2.50;;
15712;SDS011;7957;51.608;6.916;2022-09-12T14:10:36;2.67;;;2.40;;
15712;SDS011;7957;51.608;6.916;2022-09-12T14:13:09;3.00;;;2.80;;
15712;SDS011;7957;51.608;6.916;2022-09-12T14:15:37;2.33;;;2.20;;
15712;SDS011;7957;51.608;6.916;2022-09-12T14:18:18;2.83;;;2.63;;
15712;SDS011;7957;51.608;6.916;2022-09-12T14:20:48;2.63;;;2.43;;
15712;SDS011;7957;51.608;6.916;2022-09-12T14:23:23;3.63;;;2.40;;
15712;SDS011;7957;51.608;6.916;2022-09-12T14:25:53;2.67;;;2.47;;
15712;SDS011;7957;51.608;6.916;2022-09-12T14:28:21;2.73;;;2.40;;
15712;SDS011;7957;51.608;6.916;2022-09-12T14:30:58;2.70;;;2.50;;
15712;SDS011;7957;51.608;6.916;2022-09-12T14:33:26;2.57;;;2.37;;
15712;SDS011;7957;51.608;6.916;2022-09-12T14:36:06;2.10;;;2.00;;
15712;SDS011;7957;51.608;6.916;2022-09-12T14:38:39;2.87;;;2.20;;
15712;SDS011;7957;51.608;6.916;2022-09-12T14:41:08;3.70;;;2.60;;
15712;SDS011;7957;51.608;6.916;2022-09-12T14:43:37;2.57;;;2.37;;
15712;SDS011;7957;51.608;6.916;2022-09-12T14:46:06;2.67;;;2.47;;
15712;SDS011;7957;51.608;6.916;2022-09-12T14:48:42;2.80;;;2.60;;
15712;SDS011;7957;51.608;6.916;2022-09-12T14:51:15;2.83;;;2.63;;
15712;SDS011;7957;51.608;6.916;2022-09-12T14:53:47;2.70;;;2.50;;
15712;SDS011;7957;51.608;6.916;2022-09-12T14:56:14;2.90;;;2.60;;
15712;SDS011;7957;51.608;6.916;2022-09-12T14:58:42;2.83;;;2.63;;
15712;SDS011;7957;51.608;6.916;2022-09-12T15:01:22;2.83;;;2.63;;
15712;SDS011;7957;51.608;6.916;2022-09-12T15:03:51;3.30;;;2.90;;
15712;SDS011;7957;51.608;6.916;2022-09-12T15:06:20;3.07;;;2.37;;
15712;SDS011;7957;51.608;6.916;2022-09-12T15:08:51;3.00;;;2.50;;
15712;SDS011;7957;51.608;6.916;2022-09-12T15:11:19;3.13;;;2.93;;
15712;SDS011;7957;51.608;6.916;2022-09-12T15:13:46;3.00;;;2.70;;
15712;SDS011;7957;51.608;6.916;2022-09-12T15:16:13;3.07;;;2.87;;
15712;SDS011;7957;51.608;6.916;2022-09-12T15:18:40;2.80;;;2.60;;
15712;SDS011;7957;51.608;6.916;2022-09-12T15:21:09;3.07;;;2.87;;
15712;SDS011;7957;51.608;6.916;2022-09-12T15:23:39;2.90;;;2.70;;
15712;SDS011;7957;51.608;6.916;2022-09-12T15:26:12;2.90;;;2.70;;
15712;SDS011;7957;51.608;6.916;2022-09-12T15:28:40;3.30;;;2.60;;
15712;SDS011;7957;51.608;6.916;2022-09-12T15:31:10;3.53;;;2.80;;
15712;SDS011;7957;51.608;6.916;2022-09-12T15:33:48;3.33;;;3.13;;
15712;SDS011;7957;51.608;6.916;2022-09-12T15:36:15;3.03;;;2.77;;